createdAt,value
2023-11-18T00:02:17.652Z,4.77
2023-11-18T00:04:44.184Z,4.81
2023-11-18T00:07:11.856Z,4.81
2023-11-18T00:09:39.420Z,4.86
2023-11-18T00:12:05.998Z,4.90
2023-11-18T00:14:32.444Z,4.93
2023-11-18T00:16:58.938Z,4.90
2023-11-18T00:19:25.440Z,4.89
2023-11-18T00:21:52.352Z,4.89
2023-11-18T00:24:18.956Z,4.85
2023-11-18T00:26:45.530Z,4.84
2023-11-18T00:29:11.980Z,4.72
2023-11-18T00:31:38.869Z,4.38
2023-11-18T00:34:06.324Z,4.20
2023-11-18T00:36:33.913Z,4.07
2023-11-18T00:39:00.496Z,4.01
2023-11-18T00:41:28.080Z,3.94
2023-11-18T00:43:54.765Z,3.89
2023-11-18T00:46:21.706Z,3.94
2023-11-18T00:48:48.363Z,3.89
2023-11-18T00:51:14.862Z,3.92
2023-11-18T00:53:41.360Z,3.94
2023-11-18T00:56:07.953Z,3.99
2023-11-18T00:58:34.474Z,3.97
2023-11-18T01:01:01.877Z,3.96
2023-11-18T01:03:28.455Z,3.98
2023-11-18T01:05:55.957Z,4.05
2023-11-18T01:08:22.432Z,4.12
2023-11-18T01:10:49.245Z,4.08
2023-11-18T01:13:16.850Z,4.11
2023-11-18T01:15:44.325Z,4.12
2023-11-18T01:18:10.890Z,4.06
2023-11-18T01:20:38.515Z,4.04
2023-11-18T01:23:05.146Z,4.11
2023-11-18T01:25:32.732Z,4.04
2023-11-18T01:28:00.281Z,4.04
2023-11-18T01:30:26.732Z,3.99
2023-11-18T01:32:53.260Z,3.97
2023-11-18T01:35:20.045Z,3.97
2023-11-18T01:37:47.645Z,3.98
2023-11-18T01:40:15.218Z,3.98
2023-11-18T01:42:41.660Z,4.01
2023-11-18T01:45:08.108Z,4.01
2023-11-18T01:47:35.114Z,4.03
2023-11-18T01:50:03.680Z,4.00
2023-11-18T01:52:31.572Z,3.97
2023-11-18T01:54:58.763Z,3.91
2023-11-18T01:57:25.230Z,3.86
2023-11-18T01:59:51.664Z,3.90
2023-11-18T02:02:18.612Z,3.94
2023-11-18T02:04:46.238Z,4.00
2023-11-18T02:07:13.715Z,4.06
2023-11-18T02:09:41.304Z,4.09
2023-11-18T02:12:07.750Z,4.11
2023-11-18T02:14:34.236Z,4.11
2023-11-18T02:17:01.133Z,4.15
2023-11-18T02:19:27.649Z,4.21
2023-11-18T02:21:55.393Z,4.29
2023-11-18T02:24:22.064Z,4.34
2023-11-18T02:26:49.434Z,4.38
2023-11-18T02:29:16.059Z,4.41
2023-11-18T02:31:42.530Z,4.38
2023-11-18T02:34:09.255Z,4.37
2023-11-18T02:36:38.356Z,4.39
2023-11-18T02:39:04.811Z,4.38
2023-11-18T02:41:31.290Z,4.33
2023-11-18T02:43:58.634Z,4.30
2023-11-18T02:46:25.168Z,4.29
2023-11-18T02:48:51.779Z,4.29
2023-11-18T02:51:18.265Z,4.28
2023-11-18T02:53:44.690Z,4.29
2023-11-18T02:56:11.311Z,4.27
2023-11-18T02:58:37.824Z,4.27
2023-11-18T03:01:04.747Z,4.26
2023-11-18T03:03:32.387Z,4.26
2023-11-18T03:05:59.906Z,4.26
2023-11-18T03:08:26.346Z,4.17
2023-11-18T03:10:52.818Z,4.10
2023-11-18T03:13:19.687Z,4.02
2023-11-18T03:15:46.265Z,4.02
2023-11-18T03:18:12.872Z,4.06
2023-11-18T03:20:39.326Z,4.08
2023-11-18T03:23:05.844Z,4.10
2023-11-18T03:25:32.371Z,4.14
2023-11-18T03:27:58.851Z,4.17
2023-11-18T03:30:25.322Z,4.18
2023-11-18T03:32:51.772Z,4.23
2023-11-18T03:35:18.310Z,4.27
2023-11-18T03:37:45.275Z,4.27
2023-11-18T03:40:11.857Z,4.26
2023-11-18T03:42:38.396Z,4.27
2023-11-18T03:45:04.869Z,4.24
2023-11-18T03:47:31.374Z,4.21
2023-11-18T03:49:57.889Z,4.18
2023-11-18T03:52:24.334Z,4.22
2023-11-18T03:54:51.676Z,4.34
2023-11-18T03:57:18.253Z,4.44
2023-11-18T03:59:44.706Z,4.55
2023-11-18T04:02:11.304Z,4.64
2023-11-18T04:04:37.903Z,4.74
2023-11-18T04:07:05.612Z,4.81
2023-11-18T04:09:32.204Z,4.86
2023-11-18T04:11:58.658Z,4.93
2023-11-18T04:14:25.109Z,4.93
2023-11-18T04:16:52.065Z,4.95
2023-11-18T04:19:19.559Z,4.90
2023-11-18T04:21:46.012Z,4.94
2023-11-18T04:24:12.483Z,4.95
2023-11-18T04:26:38.956Z,4.97
2023-11-18T04:29:05.453Z,5.05
2023-11-18T04:31:32.022Z,5.10
2023-11-18T04:33:58.537Z,5.11
2023-11-18T04:36:25.670Z,5.06
2023-11-18T04:38:52.264Z,5.03
2023-11-18T04:41:18.745Z,5.00
2023-11-18T04:43:46.174Z,4.95
2023-11-18T04:46:12.856Z,4.92
2023-11-18T04:48:42.209Z,4.91
2023-11-18T04:51:10.254Z,4.89
2023-11-18T04:53:36.772Z,4.88
2023-11-18T04:56:03.266Z,4.89
2023-11-18T04:58:31.015Z,4.90
2023-11-18T05:00:57.652Z,4.87
2023-11-18T05:03:24.284Z,4.85
2023-11-18T05:05:50.782Z,4.81
2023-11-18T05:08:17.456Z,4.81
2023-11-18T05:10:44.996Z,4.80
2023-11-18T05:13:11.494Z,4.78
2023-11-18T05:15:37.942Z,4.75
2023-11-18T05:18:04.474Z,4.70
2023-11-18T05:20:30.939Z,4.66
2023-11-18T05:22:57.464Z,4.66
2023-11-18T05:25:23.905Z,4.61
2023-11-18T05:27:50.365Z,4.57
2023-11-18T05:30:16.825Z,4.52
2023-11-18T05:32:44.370Z,4.44
2023-11-18T05:35:10.960Z,4.38
2023-11-18T05:37:38.459Z,4.32
2023-11-18T05:40:05.085Z,4.26
2023-11-18T05:42:32.305Z,4.25
2023-11-18T05:44:58.898Z,4.17
2023-11-18T05:47:25.407Z,4.15
2023-11-18T05:49:51.912Z,4.15
2023-11-18T05:52:18.334Z,4.16
2023-11-18T05:54:44.786Z,4.16
2023-11-18T05:57:11.244Z,4.19
2023-11-18T05:59:37.711Z,4.21
2023-11-18T06:02:04.429Z,4.25
2023-11-18T06:04:30.944Z,4.32
2023-11-18T06:06:57.436Z,4.40
2023-11-18T06:09:23.889Z,4.45
2023-11-18T06:11:50.842Z,4.53
2023-11-18T06:14:18.378Z,4.65
2023-11-18T06:16:44.922Z,4.74
2023-11-18T06:19:11.992Z,4.85
2023-11-18T06:21:38.444Z,4.97
2023-11-18T06:24:05.642Z,5.06
2023-11-18T06:26:32.147Z,5.13
2023-11-18T06:28:58.688Z,5.16
2023-11-18T06:31:25.490Z,5.18
2023-11-18T06:33:52.231Z,5.12
2023-11-18T06:36:19.651Z,5.12
2023-11-18T06:38:47.229Z,5.14
2023-11-18T06:41:13.742Z,5.18
2023-11-18T06:43:40.230Z,5.22
2023-11-18T06:46:06.956Z,5.28
2023-11-18T06:48:33.435Z,5.31
2023-11-18T06:50:59.887Z,5.34
2023-11-18T06:53:26.353Z,5.35
2023-11-18T06:55:52.910Z,5.34
2023-11-18T06:58:19.710Z,5.31
2023-11-18T07:00:46.263Z,5.30
2023-11-18T07:03:13.104Z,5.22
2023-11-18T07:05:40.704Z,5.17
2023-11-18T07:08:08.298Z,5.15
2023-11-18T07:10:36.028Z,5.13
2023-11-18T07:13:03.444Z,5.12
2023-11-18T07:15:29.922Z,5.12
2023-11-18T07:17:57.219Z,5.13
2023-11-18T07:20:23.793Z,5.13
2023-11-18T07:22:50.274Z,5.13
2023-11-18T07:25:16.747Z,5.05
2023-11-18T07:27:43.265Z,5.09
2023-11-18T07:30:10.873Z,5.17
2023-11-18T07:32:38.507Z,5.28
2023-11-18T07:35:06.123Z,5.40
2023-11-18T07:37:33.108Z,5.51
2023-11-18T07:39:59.546Z,5.63
2023-11-18T07:42:25.988Z,5.74
2023-11-18T07:44:53.419Z,5.79
2023-11-18T07:47:20.152Z,5.88
2023-11-18T07:49:47.666Z,5.97
2023-11-18T07:52:14.170Z,6.10
2023-11-18T07:54:40.703Z,6.22
2023-11-18T07:57:07.369Z,6.33
2023-11-18T07:59:34.031Z,6.41
2023-11-18T08:02:02.805Z,6.51
2023-11-18T08:04:31.143Z,6.60
2023-11-18T08:06:57.725Z,6.66
2023-11-18T08:09:24.321Z,6.71
2023-11-18T08:11:50.916Z,6.74
2023-11-18T08:14:17.534Z,6.73
2023-11-18T08:16:44.185Z,6.78
2023-11-18T08:19:10.695Z,6.78
2023-11-18T08:21:37.189Z,6.82
2023-11-18T08:24:03.629Z,6.89
2023-11-18T08:26:30.061Z,6.93
2023-11-18T08:28:56.524Z,6.95
2023-11-18T08:31:23.049Z,7.00
2023-11-18T08:33:50.208Z,7.03
2023-11-18T08:36:17.812Z,7.10
2023-11-18T08:38:44.390Z,7.09
2023-11-18T08:41:13.131Z,6.97
2023-11-18T08:43:39.715Z,6.91
2023-11-18T08:46:06.335Z,6.92
2023-11-18T08:48:32.769Z,7.01
2023-11-18T08:50:59.209Z,7.00
2023-11-18T08:53:25.928Z,7.03
2023-11-18T08:55:52.834Z,6.90
2023-11-18T08:58:19.342Z,6.86
2023-11-18T09:00:45.788Z,6.86
2023-11-18T09:03:12.369Z,6.81
2023-11-18T09:05:38.894Z,6.84
2023-11-18T09:08:06.502Z,6.86
2023-11-18T09:10:33.032Z,6.94
2023-11-18T09:13:01.018Z,6.91
2023-11-18T09:15:28.799Z,6.96
2023-11-18T09:17:55.839Z,7.08
2023-11-18T09:20:22.921Z,7.18
2023-11-18T09:22:49.419Z,7.33
2023-11-18T09:25:15.968Z,7.43
2023-11-18T09:27:42.449Z,7.53
2023-11-18T09:30:09.763Z,7.65
2023-11-18T09:32:36.478Z,7.67
2023-11-18T09:35:03.027Z,7.67
2023-11-18T09:37:29.900Z,7.68
2023-11-18T09:39:56.373Z,7.67
2023-11-18T09:42:22.854Z,7.71
2023-11-18T09:44:49.365Z,7.67
2023-11-18T09:47:15.842Z,7.65
2023-11-18T09:49:42.338Z,7.69
2023-11-18T09:52:08.808Z,7.75
2023-11-18T09:54:35.310Z,7.78
2023-11-18T09:57:02.206Z,7.81
2023-11-18T09:59:28.804Z,7.81
2023-11-18T10:01:56.455Z,7.82
2023-11-18T10:04:23.984Z,7.85
2023-11-18T10:06:50.564Z,7.89
2023-11-18T10:09:17.072Z,7.91
2023-11-18T10:11:43.587Z,7.90
2023-11-18T10:14:10.358Z,7.89
2023-11-18T10:16:36.825Z,7.93
2023-11-18T10:19:03.311Z,7.93
2023-11-18T10:21:30.944Z,7.92
2023-11-18T10:23:57.420Z,7.96
2023-11-18T10:26:24.320Z,8.01
2023-11-18T10:28:51.904Z,8.05
2023-11-18T10:31:18.465Z,8.05
2023-11-18T10:33:45.164Z,8.08
2023-11-18T10:36:12.648Z,8.09
2023-11-18T10:38:40.240Z,8.12
2023-11-18T10:41:06.810Z,8.10
2023-11-18T10:43:33.310Z,8.09
2023-11-18T10:46:00.047Z,8.06
2023-11-18T10:48:26.615Z,8.00
2023-11-18T10:50:55.285Z,7.99
2023-11-18T10:53:22.927Z,8.00
2023-11-18T10:55:49.974Z,8.00
2023-11-18T10:58:16.415Z,7.99
2023-11-18T11:00:42.939Z,8.01
2023-11-18T11:03:10.252Z,7.98
2023-11-18T11:05:37.831Z,7.97
2023-11-18T11:08:05.372Z,7.98
2023-11-18T11:10:32.940Z,8.02
2023-11-18T11:12:59.554Z,8.11
2023-11-18T11:15:26.013Z,8.17
2023-11-18T11:17:52.793Z,8.11
2023-11-18T11:20:20.340Z,8.15
2023-11-18T11:22:47.891Z,8.18
2023-11-18T11:25:14.578Z,8.25
2023-11-18T11:27:42.064Z,8.28
2023-11-18T11:30:09.666Z,8.36
2023-11-18T11:32:36.115Z,8.38
2023-11-18T11:35:02.664Z,8.35
2023-11-18T11:37:29.415Z,8.30
2023-11-18T11:39:55.843Z,8.25
2023-11-18T11:42:22.671Z,8.25
2023-11-18T11:44:49.236Z,8.22
2023-11-18T11:47:16.273Z,8.18
2023-11-18T11:49:42.748Z,8.16
2023-11-18T11:52:10.015Z,8.17
2023-11-18T11:54:36.465Z,8.11
2023-11-18T11:57:03.198Z,8.08
2023-11-18T11:59:29.793Z,8.05
2023-11-18T12:01:56.426Z,8.02
2023-11-18T12:04:24.183Z,7.98
2023-11-18T12:06:50.730Z,7.96
2023-11-18T12:09:17.229Z,7.93
2023-11-18T12:11:43.708Z,7.92
2023-11-18T12:14:10.262Z,7.93
2023-11-18T12:16:36.796Z,7.92
2023-11-18T12:19:03.319Z,7.95
2023-11-18T12:21:29.810Z,7.93
2023-11-18T12:23:56.680Z,7.92
2023-11-18T12:26:23.315Z,7.92
2023-11-18T12:28:50.399Z,7.93
2023-11-18T12:31:17.497Z,7.96
2023-11-18T12:33:45.040Z,7.96
2023-11-18T12:36:12.619Z,7.94
2023-11-18T12:38:39.091Z,7.91
2023-11-18T12:41:06.819Z,7.95
2023-11-18T12:43:33.351Z,7.96
2023-11-18T12:46:01.051Z,7.94
2023-11-18T12:48:29.040Z,7.92
2023-11-18T12:50:56.190Z,7.95
2023-11-18T12:53:22.791Z,7.96
2023-11-18T12:55:49.464Z,7.96
2023-11-18T12:58:16.947Z,7.99
2023-11-18T13:00:43.405Z,8.01
2023-11-18T13:03:10.034Z,8.01
2023-11-18T13:05:36.723Z,8.05
2023-11-18T13:08:03.238Z,8.07
2023-11-18T13:10:29.709Z,8.09
2023-11-18T13:12:56.181Z,8.04
2023-11-18T13:15:23.047Z,8.02
2023-11-18T13:17:51.476Z,8.00
2023-11-18T13:20:18.258Z,8.00
2023-11-18T13:22:48.396Z,7.94
2023-11-18T13:25:15.460Z,7.90
2023-11-18T13:27:42.406Z,7.86
2023-11-18T13:30:08.872Z,7.79
2023-11-18T13:32:36.192Z,7.81
2023-11-18T13:35:02.745Z,7.89
2023-11-18T13:37:29.237Z,7.95
2023-11-18T13:39:55.755Z,8.02
2023-11-18T13:42:22.250Z,8.04
2023-11-18T13:44:48.894Z,8.02
2023-11-18T13:47:15.721Z,8.09
2023-11-18T13:49:42.204Z,8.04
2023-11-18T13:52:08.703Z,8.04
2023-11-18T13:54:35.450Z,8.11
2023-11-18T13:57:02.067Z,8.17
2023-11-18T13:59:28.677Z,8.26
2023-11-18T14:01:55.201Z,8.35
2023-11-18T14:04:21.923Z,8.43
2023-11-18T14:06:48.409Z,8.45
2023-11-18T14:09:15.059Z,8.48
2023-11-18T14:11:42.668Z,8.50
2023-11-18T14:14:09.200Z,8.48
2023-11-18T14:16:36.824Z,8.48
2023-11-18T14:19:03.301Z,8.52
2023-11-18T14:21:29.780Z,8.53
2023-11-18T14:23:56.285Z,8.54
2023-11-18T14:26:22.820Z,8.53
2023-11-18T14:28:49.555Z,8.51
2023-11-18T14:31:16.438Z,8.50
2023-11-18T14:33:43.988Z,8.47
2023-11-18T14:36:10.477Z,8.47
2023-11-18T14:38:37.182Z,8.46
2023-11-18T14:41:04.789Z,8.46
2023-11-18T14:43:32.346Z,8.45
2023-11-18T14:45:58.970Z,8.46
2023-11-18T14:48:25.468Z,8.46
2023-11-18T14:50:51.953Z,8.45
2023-11-18T14:53:18.441Z,8.30
2023-11-18T14:55:44.920Z,8.25
2023-11-18T14:58:11.380Z,8.26
2023-11-18T15:00:38.440Z,8.32
2023-11-18T15:03:05.132Z,8.35
2023-11-18T15:05:32.648Z,8.35
2023-11-18T15:07:59.426Z,8.29
2023-11-18T15:10:26.001Z,8.25
2023-11-18T15:12:52.476Z,8.25
2023-11-18T15:15:19.344Z,8.20
2023-11-18T15:17:48.147Z,8.18
2023-11-18T15:20:15.090Z,8.18
2023-11-18T15:22:41.814Z,8.17
2023-11-18T15:25:08.710Z,8.17
2023-11-18T15:27:35.150Z,8.17
2023-11-18T15:30:01.615Z,8.14
2023-11-18T15:32:29.249Z,8.14
2023-11-18T15:34:56.778Z,8.06
2023-11-18T15:37:24.345Z,7.99
2023-11-18T15:39:50.866Z,7.93
2023-11-18T15:42:17.327Z,7.87
2023-11-18T15:44:43.804Z,7.89
2023-11-18T15:47:10.710Z,7.88
2023-11-18T15:49:38.294Z,7.86
2023-11-18T15:52:04.880Z,7.87
2023-11-18T15:54:31.385Z,7.87
2023-11-18T15:57:00.055Z,7.86
2023-11-18T15:59:26.717Z,7.86
2023-11-18T16:01:53.212Z,7.84
2023-11-18T16:04:19.743Z,7.79
2023-11-18T16:06:46.249Z,7.80
2023-11-18T16:09:13.037Z,7.59
2023-11-18T16:11:40.603Z,7.59
2023-11-18T16:14:07.130Z,7.63
2023-11-18T16:16:33.694Z,7.72
2023-11-18T16:19:00.196Z,7.75
2023-11-18T16:21:26.682Z,7.78
2023-11-18T16:23:53.179Z,7.76
2023-11-18T16:26:20.189Z,7.70
2023-11-18T16:28:47.754Z,7.69
2023-11-18T16:31:14.353Z,7.66
2023-11-18T16:33:40.851Z,7.71
2023-11-18T16:36:07.336Z,7.80
2023-11-18T16:38:34.180Z,7.89
2023-11-18T16:41:00.829Z,7.94
2023-11-18T16:43:27.336Z,7.93
2023-11-18T16:45:55.043Z,7.97
2023-11-18T16:48:22.517Z,7.99
2023-11-18T16:50:50.119Z,7.93
2023-11-18T16:53:16.777Z,7.88
2023-11-18T16:55:43.235Z,7.82
2023-11-18T16:58:09.831Z,7.80
2023-11-18T17:00:36.421Z,7.62
2023-11-18T17:03:03.389Z,7.58
2023-11-18T17:05:31.034Z,7.60
2023-11-18T17:07:58.596Z,7.59
2023-11-18T17:10:25.062Z,7.61
2023-11-18T17:12:51.549Z,7.65
2023-11-18T17:15:18.988Z,7.67
2023-11-18T17:17:45.508Z,7.69
2023-11-18T17:20:12.236Z,7.70
2023-11-18T17:22:39.747Z,7.68
2023-11-18T17:25:06.227Z,7.64
2023-11-18T17:27:32.929Z,7.66
2023-11-18T17:29:59.508Z,7.65
2023-11-18T17:32:27.171Z,7.65
2023-11-18T17:34:54.721Z,7.64
2023-11-18T17:37:21.240Z,7.66
2023-11-18T17:39:47.869Z,7.68
2023-11-18T17:42:15.479Z,7.70
2023-11-18T17:44:42.058Z,7.72
2023-11-18T17:47:08.570Z,7.71
2023-11-18T17:49:35.247Z,7.71
2023-11-18T17:52:01.840Z,7.71
2023-11-18T17:54:28.288Z,7.70
2023-11-18T17:56:54.844Z,7.69
2023-11-18T17:59:21.641Z,7.63
2023-11-18T18:01:48.167Z,7.63
2023-11-18T18:04:14.681Z,7.61
2023-11-18T18:06:41.400Z,7.55
2023-11-18T18:09:07.882Z,7.49
2023-11-18T18:11:34.351Z,7.51
2023-11-18T18:14:00.872Z,7.56
2023-11-18T18:16:27.398Z,7.57
2023-11-18T18:18:53.981Z,7.54
2023-11-18T18:21:20.912Z,7.39
2023-11-18T18:23:47.379Z,7.40
2023-11-18T18:26:13.840Z,7.44
2023-11-18T18:28:40.339Z,7.46
2023-11-18T18:31:06.790Z,7.49
2023-11-18T18:33:33.278Z,7.49
2023-11-18T18:35:59.762Z,7.39
2023-11-18T18:38:26.261Z,7.39
2023-11-18T18:40:52.737Z,7.40
2023-11-18T18:43:19.214Z,7.41
2023-11-18T18:45:45.705Z,7.45
2023-11-18T18:48:12.224Z,7.48
2023-11-18T18:50:39.065Z,7.50
2023-11-18T18:53:06.107Z,7.53
2023-11-18T18:55:32.594Z,7.54
2023-11-18T18:57:59.764Z,7.49
2023-11-18T19:00:26.220Z,7.37
2023-11-18T19:02:53.068Z,7.13
2023-11-18T19:05:20.576Z,7.08
2023-11-18T19:07:48.138Z,7.16
2023-11-18T19:10:14.734Z,7.19
2023-11-18T19:12:41.308Z,7.24
2023-11-18T19:15:07.788Z,7.34
2023-11-18T19:17:34.527Z,7.25
2023-11-18T19:20:02.300Z,7.34
2023-11-18T19:22:29.703Z,7.40
2023-11-18T19:24:56.289Z,7.44
2023-11-18T19:27:22.763Z,7.41
2023-11-18T19:29:49.311Z,7.41
2023-11-18T19:32:16.099Z,7.48
2023-11-18T19:34:43.663Z,7.53
2023-11-18T19:37:11.269Z,7.55
2023-11-18T19:39:41.615Z,7.55
2023-11-18T19:42:08.469Z,7.57
2023-11-18T19:44:35.030Z,7.49
2023-11-18T19:47:01.571Z,7.47
2023-11-18T19:49:28.073Z,7.46
2023-11-18T19:51:54.800Z,7.52
2023-11-18T19:54:21.268Z,7.57
2023-11-18T19:56:47.747Z,7.60
2023-11-18T19:59:14.593Z,7.60
2023-11-18T20:01:41.150Z,7.64
2023-11-18T20:04:09.852Z,7.66
2023-11-18T20:06:37.393Z,7.66
2023-11-18T20:09:03.913Z,7.69
2023-11-18T20:11:30.479Z,7.70
2023-11-18T20:13:56.936Z,7.69
2023-11-18T20:16:23.733Z,7.70
2023-11-18T20:18:51.300Z,7.71
2023-11-18T20:21:17.892Z,7.76
2023-11-18T20:23:44.406Z,7.78
2023-11-18T20:26:11.082Z,7.83
2023-11-18T20:28:38.670Z,7.76
2023-11-18T20:31:06.295Z,7.60
2023-11-18T20:33:32.821Z,7.55
2023-11-18T20:35:59.601Z,7.45
2023-11-18T20:38:26.289Z,7.31
2023-11-18T20:40:53.643Z,7.25
2023-11-18T20:43:20.125Z,7.36
2023-11-18T20:45:46.780Z,7.44
2023-11-18T20:48:13.400Z,7.50
2023-11-18T20:50:41.056Z,7.57
2023-11-18T20:53:07.601Z,7.46
2023-11-18T20:55:34.163Z,7.48
2023-11-18T20:58:00.633Z,7.48
2023-11-18T21:00:27.065Z,7.49
2023-11-18T21:02:53.763Z,7.46
2023-11-18T21:05:20.690Z,7.32
2023-11-18T21:07:48.098Z,7.27
2023-11-18T21:10:16.330Z,7.11
2023-11-18T21:12:43.282Z,7.05
2023-11-18T21:15:09.839Z,6.99
2023-11-18T21:17:36.509Z,7.00
2023-11-18T21:20:04.196Z,7.12
2023-11-18T21:22:30.674Z,7.20
2023-11-18T21:24:57.158Z,7.22
2023-11-18T21:27:23.616Z,7.29
2023-11-18T21:29:50.113Z,7.35
2023-11-18T21:32:16.587Z,7.23
2023-11-18T21:34:43.052Z,7.21
2023-11-18T21:37:10.210Z,7.33
2023-11-18T21:39:36.710Z,7.41
2023-11-18T21:42:03.386Z,7.33
2023-11-18T21:44:29.970Z,7.36
2023-11-18T21:46:56.420Z,7.44
2023-11-18T21:49:24.157Z,7.45
2023-11-18T21:51:51.740Z,7.39
2023-11-18T21:54:18.331Z,7.44
2023-11-18T21:56:46.074Z,7.48
2023-11-18T21:59:12.608Z,7.50
2023-11-18T22:01:40.204Z,7.50
2023-11-18T22:04:08.852Z,7.50
2023-11-18T22:06:36.347Z,7.47
2023-11-18T22:09:02.830Z,7.52
2023-11-18T22:14:02.784Z,7.52
2023-11-18T22:16:29.291Z,7.52
2023-11-18T22:18:55.773Z,7.54
2023-11-18T22:21:22.259Z,7.59
2023-11-18T22:23:48.738Z,7.63
2023-11-18T22:26:15.275Z,7.69
2023-11-18T22:28:41.742Z,7.68
2023-11-18T22:31:08.187Z,7.60
2023-11-18T22:33:34.982Z,7.60
2023-11-18T22:36:02.482Z,7.43
2023-11-18T22:38:28.997Z,7.36
2023-11-18T22:40:55.505Z,7.30
2023-11-18T22:43:22.398Z,7.40
2023-11-18T22:45:50.130Z,7.55
2023-11-18T22:48:17.602Z,7.66
2023-11-18T22:50:44.143Z,7.77
2023-11-18T22:53:10.804Z,7.82
2023-11-18T22:55:37.290Z,7.78
2023-11-18T22:58:03.780Z,7.78
2023-11-18T23:00:30.260Z,7.73
2023-11-18T23:02:56.904Z,7.77
2023-11-18T23:05:23.550Z,7.75
2023-11-18T23:07:50.045Z,7.77
2023-11-18T23:10:16.579Z,7.79
2023-11-18T23:12:43.109Z,7.73
2023-11-18T23:15:10.151Z,7.71
2023-11-18T23:17:36.733Z,7.73
2023-11-18T23:20:03.269Z,7.76
2023-11-18T23:22:29.729Z,7.79
2023-11-18T23:24:56.213Z,7.79
2023-11-18T23:27:22.654Z,7.75
2023-11-18T23:29:49.678Z,7.66
2023-11-18T23:32:16.297Z,7.62
2023-11-18T23:34:42.775Z,7.63
2023-11-18T23:37:09.464Z,7.59
2023-11-18T23:39:36.045Z,7.61
2023-11-18T23:42:02.506Z,7.63
2023-11-18T23:44:30.195Z,7.61
2023-11-18T23:46:56.811Z,7.59
2023-11-18T23:49:24.420Z,7.58
2023-11-18T23:51:50.932Z,7.60
2023-11-18T23:54:17.399Z,7.60
2023-11-18T23:56:44.162Z,7.55
2023-11-18T23:59:10.767Z,7.54
